Time;durP1;ratioP1;P1;durP2;ratioP2;P2;SDS_P1;SDS_P2;PMS_P1;PMS_P2;Temp;Humidity;BMP_temperature;BMP_pressure;BME280_temperature;BME280_humidity;BME280_pressure;Samples;Min_cycle;Max_cycle;Signal;HPM_P1;HPM_P2
2020/12/18 00:00:48;;;;;;;11.70;6.97;;;11.30;74.10;;;;;;5020783;28;20075;-72
2020/12/18 00:03:14;;;;;;;11.98;7.55;;;11.30;74.20;;;;;;5031355;28;20044;-72
2020/12/18 00:05:42;;;;;;;16.40;7.78;;;11.30;74.20;;;;;;5018537;28;20041;-72
2020/12/18 00:08:07;;;;;;;13.40;7.00;;;11.30;74.20;;;;;;5026600;28;20121;-72
2020/12/18 00:10:33;;;;;;;11.73;7.15;;;11.30;74.20;;;;;;5033149;28;20121;-71
2020/12/18 00:12:59;;;;;;;12.13;6.63;;;11.40;74.20;;;;;;5027379;28;20577;-71
2020/12/18 00:15:28;;;;;;;15.82;8.23;;;11.30;74.20;;;;;;5024600;28;20030;-72
2020/12/18 00:17:53;;;;;;;14.20;7.43;;;11.30;74.30;;;;;;5008766;28;20059;-72
2020/12/18 00:20:20;;;;;;;13.32;7.47;;;11.30;74.60;;;;;;5001855;28;20148;-71
2020/12/18 00:22:45;;;;;;;12.82;7.47;;;11.20;74.70;;;;;;5031087;28;20073;-71
2020/12/18 00:25:11;;;;;;;12.32;7.55;;;11.20;74.90;;;;;;5031156;28;20436;-72
2020/12/18 00:27:41;;;;;;;17.65;9.57;;;11.20;75.00;;;;;;5031061;28;20060;-72
2020/12/18 00:30:11;;;;;;;15.65;7.40;;;11.20;75.20;;;;;;5032079;28;20473;-72
2020/12/18 00:32:38;;;;;;;11.15;6.40;;;11.20;75.10;;;;;;5028973;28;20111;-72
2020/12/18 00:35:11;;;;;;;11.57;6.88;;;11.20;75.20;;;;;;5030052;28;20080;-72
2020/12/18 00:37:37;;;;;;;15.35;8.23;;;11.20;75.20;;;;;;5028635;28;20083;-72
2020/12/18 00:40:07;;;;;;;10.65;6.70;;;11.10;75.50;;;;;;5019724;28;20132;-72
2020/12/18 00:42:33;;;;;;;14.45;8.45;;;11.10;75.60;;;;;;5011571;28;20037;-72
2020/12/18 00:44:58;;;;;;;18.60;8.48;;;11.10;75.60;;;;;;5030066;28;20796;-72
2020/12/18 00:47:24;;;;;;;16.88;10.38;;;11.10;75.60;;;;;;5010639;28;20108;-71
2020/12/18 00:49:50;;;;;;;12.80;8.02;;;11.10;75.50;;;;;;5023664;28;20096;-72
2020/12/18 00:52:16;;;;;;;13.25;7.93;;;11.10;75.50;;;;;;5021567;28;20034;-72
2020/12/18 00:54:41;;;;;;;17.13;9.52;;;11.10;75.70;;;;;;5011209;28;20030;-72
2020/12/18 00:57:07;;;;;;;16.30;8.77;;;11.10;75.70;;;;;;5028461;28;20038;-72
2020/12/18 00:59:32;;;;;;;17.65;10.23;;;11.10;76.00;;;;;;5022004;28;20052;-72
2020/12/18 01:01:59;;;;;;;14.15;9.10;;;11.00;76.20;;;;;;5010675;28;20472;-71
2020/12/18 01:04:26;;;;;;;14.48;9.38;;;11.00;76.50;;;;;;5018999;28;20038;-71
2020/12/18 01:06:53;;;;;;;29.50;12.45;;;11.00;76.50;;;;;;5021561;28;20042;-71
2020/12/18 01:09:20;;;;;;;19.75;10.25;;;11.00;76.60;;;;;;5016877;28;20033;-72
2020/12/18 01:11:45;;;;;;;14.98;9.02;;;11.00;76.50;;;;;;5029979;28;20028;-72
2020/12/18 01:14:11;;;;;;;14.10;8.90;;;10.90;76.40;;;;;;5007424;28;20029;-72
2020/12/18 01:16:37;;;;;;;11.27;7.35;;;11.00;76.40;;;;;;5009587;28;20030;-72
2020/12/18 01:19:02;;;;;;;16.15;8.27;;;11.00;76.40;;;;;;5014326;28;20074;-72
2020/12/18 01:21:28;;;;;;;14.98;7.90;;;11.00;76.40;;;;;;5025408;28;20164;-72
2020/12/18 01:23:54;;;;;;;17.60;8.23;;;11.00;76.30;;;;;;5024140;28;20111;-72
2020/12/18 01:26:19;;;;;;;14.30;9.27;;;11.00;76.40;;;;;;5025889;28;20066;-72
2020/12/18 01:28:45;;;;;;;15.73;8.38;;;11.00;76.40;;;;;;5026672;28;20056;-72
2020/12/18 01:31:10;;;;;;;17.55;8.85;;;11.00;76.40;;;;;;5006354;28;20032;-72
2020/12/18 01:33:36;;;;;;;11.32;6.93;;;11.00;76.40;;;;;;5025332;28;20499;-72
2020/12/18 01:36:02;;;;;;;13.98;6.60;;;11.00;76.30;;;;;;5025997;28;20061;-72
2020/12/18 01:38:28;;;;;;;14.82;7.60;;;11.00;76.20;;;;;;5010504;28;20049;-72
2020/12/18 01:40:53;;;;;;;16.40;7.32;;;11.10;76.30;;;;;;5023556;28;20044;-72
2020/12/18 01:43:19;;;;;;;16.27;8.60;;;11.00;76.20;;;;;;5030117;28;20044;-72
2020/12/18 01:45:45;;;;;;;14.88;7.63;;;11.10;76.10;;;;;;5026941;28;20121;-72
2020/12/18 01:48:12;;;;;;;11.63;7.25;;;11.10;76.00;;;;;;5019888;28;20033;-73
2020/12/18 01:50:38;;;;;;;16.73;7.78;;;11.10;75.90;;;;;;5018401;28;20373;-71
2020/12/18 01:53:04;;;;;;;12.75;7.15;;;11.10;75.70;;;;;;5029273;28;20120;-72
2020/12/18 01:55:30;;;;;;;21.77;7.97;;;11.10;75.70;;;;;;5029935;28;20040;-72
2020/12/18 01:57:55;;;;;;;12.82;7.55;;;11.10;75.70;;;;;;5007345;28;20064;-72
2020/12/18 02:00:22;;;;;;;17.45;7.22;;;11.10;75.70;;;;;;5025846;28;20084;-70
2020/12/18 02:02:47;;;;;;;14.25;7.75;;;11.10;75.70;;;;;;5035394;28;20049;-72
2020/12/18 02:05:14;;;;;;;13.27;7.85;;;11.10;75.60;;;;;;5038333;28;20399;-72
2020/12/18 02:07:45;;;;;;;12.93;6.90;;;11.00;75.60;;;;;;5014428;28;20375;-72
2020/12/18 02:10:11;;;;;;;13.65;7.07;;;11.00;75.80;;;;;;5028678;28;20101;-72
2020/12/18 02:12:37;;;;;;;16.13;8.63;;;11.00;75.90;;;;;;5025036;28;20037;-71
2020/12/18 02:15:02;;;;;;;13.15;7.15;;;11.00;76.00;;;;;;5020273;28;20041;-73
2020/12/18 02:17:28;;;;;;;16.77;8.35;;;11.00;76.00;;;;;;5022050;28;20029;-71
2020/12/18 02:19:54;;;;;;;14.02;6.78;;;11.00;75.90;;;;;;5028673;28;20070;-72
2020/12/18 02:22:24;;;;;;;11.70;7.18;;;11.00;75.90;;;;;;5025941;28;20149;-71
2020/12/18 02:25:20;;;;;;;17.60;7.85;;;11.00;75.80;;;;;;5015619;28;20030;-72
2020/12/18 02:27:45;;;;;;;13.57;7.60;;;11.00;75.80;;;;;;5017527;28;20255;-71
2020/12/18 02:30:12;;;;;;;19.13;8.35;;;11.00;76.00;;;;;;5026679;28;20175;-72
2020/12/18 02:32:37;;;;;;;12.23;7.75;;;10.90;76.20;;;;;;5024182;28;20376;-72
2020/12/18 02:35:05;;;;;;;17.17;8.20;;;10.90;76.30;;;;;;5028736;28;20061;-73
2020/12/18 02:37:31;;;;;;;13.35;6.93;;;10.90;76.20;;;;;;5023862;28;20060;-72
2020/12/18 02:39:59;;;;;;;12.68;7.63;;;10.90;76.30;;;;;;5029290;28;20364;-72
2020/12/18 02:42:24;;;;;;;23.17;7.75;;;10.90;76.40;;;;;;5023879;28;20419;-72
2020/12/18 02:44:50;;;;;;;17.10;8.30;;;10.90;76.40;;;;;;5011196;28;20163;-73
2020/12/18 02:47:16;;;;;;;12.90;7.47;;;10.90;76.30;;;;;;5013620;28;20117;-73
2020/12/18 02:49:41;;;;;;;15.63;7.35;;;10.90;76.20;;;;;;5026089;28;20506;-73
2020/12/18 02:52:08;;;;;;;10.57;5.93;;;10.90;76.20;;;;;;5028384;28;20030;-73
2020/12/18 02:54:34;;;;;;;16.13;7.18;;;10.90;76.20;;;;;;5028872;28;20033;-73
2020/12/18 02:57:00;;;;;;;11.70;5.97;;;10.90;76.30;;;;;;5027991;28;20095;-73
2020/12/18 02:59:25;;;;;;;14.43;6.97;;;10.90;76.20;;;;;;5025509;28;20168;-73
2020/12/18 03:01:51;;;;;;;14.18;6.00;;;10.90;76.20;;;;;;5028882;28;20099;-73
2020/12/18 03:04:16;;;;;;;14.90;6.97;;;10.90;76.20;;;;;;5028764;28;20045;-72
2020/12/18 03:06:42;;;;;;;15.25;7.50;;;10.90;76.30;;;;;;5017144;28;20037;-72
2020/12/18 03:09:07;;;;;;;15.95;6.72;;;10.80;76.30;;;;;;5010190;28;20369;-73
2020/12/18 03:11:33;;;;;;;11.65;6.90;;;10.80;76.30;;;;;;5024140;28;20161;-72
2020/12/18 03:13:59;;;;;;;17.83;6.43;;;10.80;76.40;;;;;;5015673;28;20041;-73
2020/12/18 03:16:24;;;;;;;11.60;6.00;;;10.80;76.40;;;;;;5009550;28;20045;-73
2020/12/18 03:18:50;;;;;;;11.95;6.10;;;10.80;76.40;;;;;;5016263;28;20026;-72
2020/12/18 03:21:16;;;;;;;10.30;5.70;;;10.80;76.40;;;;;;5008510;28;20061;-72
2020/12/18 03:23:41;;;;;;;12.40;7.40;;;10.80;76.20;;;;;;5021675;28;20053;-73
2020/12/18 03:26:07;;;;;;;16.48;7.65;;;10.80;76.10;;;;;;5019635;28;20387;-73
2020/12/18 03:28:33;;;;;;;17.13;6.43;;;10.80;76.10;;;;;;5019822;28;20084;-73
2020/12/18 03:30:58;;;;;;;16.88;7.15;;;10.70;76.20;;;;;;5033268;28;20030;-73
2020/12/18 03:33:24;;;;;;;13.63;6.85;;;10.70;76.30;;;;;;5029538;28;20159;-73
2020/12/18 03:35:50;;;;;;;10.27;6.18;;;10.70;76.40;;;;;;5021020;28;20060;-73
2020/12/18 03:38:16;;;;;;;11.15;6.57;;;10.70;76.60;;;;;;5030555;28;20041;-72
2020/12/18 03:40:42;;;;;;;9.95;5.75;;;10.70;76.70;;;;;;5027704;28;20083;-73
2020/12/18 03:43:07;;;;;;;10.95;5.50;;;10.70;76.70;;;;;;5019665;28;20042;-72
2020/12/18 03:45:33;;;;;;;10.25;5.57;;;10.70;76.50;;;;;;5014749;28;20034;-72
2020/12/18 03:47:59;;;;;;;14.93;6.40;;;10.70;76.40;;;;;;5020739;28;20038;-72
2020/12/18 03:50:24;;;;;;;14.68;6.28;;;10.70;76.60;;;;;;5011755;28;20516;-72
2020/12/18 03:52:50;;;;;;;10.02;5.57;;;10.70;76.70;;;;;;5021288;28;20474;-73
2020/12/18 03:55:15;;;;;;;13.88;5.88;;;10.70;76.70;;;;;;5025739;28;20036;-73
2020/12/18 03:57:41;;;;;;;10.10;5.78;;;10.70;76.70;;;;;;5023280;28;20033;-73
2020/12/18 04:00:09;;;;;;;11.45;5.65;;;10.70;76.60;;;;;;5014742;28;20088;-72
2020/12/18 04:02:34;;;;;;;13.65;6.22;;;10.60;76.60;;;;;;5020566;28;20029;-73
2020/12/18 04:05:00;;;;;;;10.23;5.72;;;10.60;76.60;;;;;;5018081;28;20382;-73
2020/12/18 04:07:26;;;;;;;12.80;5.72;;;10.60;76.70;;;;;;5032153;28;20069;-73
2020/12/18 04:09:51;;;;;;;15.02;5.85;;;10.60;76.70;;;;;;5033625;28;20025;-72
2020/12/18 04:12:17;;;;;;;11.20;5.75;;;10.60;76.80;;;;;;5028391;28;20037;-73
2020/12/18 04:14:43;;;;;;;8.30;5.38;;;10.60;76.70;;;;;;5013746;28;20053;-72
2020/12/18 04:17:08;;;;;;;11.80;5.65;;;10.70;76.60;;;;;;5019308;28;20049;-72
2020/12/18 04:19:34;;;;;;;10.68;5.63;;;10.60;76.70;;;;;;4995447;28;20044;-73
2020/12/18 04:22:00;;;;;;;9.55;5.35;;;10.60;76.60;;;;;;5032312;28;20040;-73
2020/12/18 04:24:26;;;;;;;11.07;5.22;;;10.60;76.60;;;;;;5025277;28;20044;-73
2020/12/18 04:26:52;;;;;;;9.05;5.47;;;10.60;76.40;;;;;;5013988;28;20038;-73
2020/12/18 04:29:18;;;;;;;11.45;5.05;;;10.60;76.30;;;;;;5019341;28;20872;-73
2020/12/18 04:31:44;;;;;;;12.05;5.72;;;10.60;76.40;;;;;;5026677;28;20038;-73
2020/12/18 04:34:10;;;;;;;10.43;5.55;;;10.60;76.40;;;;;;5029011;28;20867;-73
2020/12/18 04:36:36;;;;;;;10.80;5.03;;;10.60;76.30;;;;;;5000998;28;20132;-73
2020/12/18 04:39:03;;;;;;;15.98;6.68;;;10.60;76.50;;;;;;5030972;28;20030;-72
2020/12/18 04:41:29;;;;;;;13.00;5.78;;;10.60;76.70;;;;;;5031743;28;20028;-72
2020/12/18 04:43:55;;;;;;;10.27;5.57;;;10.50;76.60;;;;;;5032513;28;20034;-72
2020/12/18 04:46:22;;;;;;;15.20;6.85;;;10.50;76.90;;;;;;5021189;28;20065;-72
2020/12/18 04:48:48;;;;;;;13.70;6.30;;;10.50;77.20;;;;;;5029879;28;20491;-72
2020/12/18 04:51:22;;;;;;;15.65;6.78;;;10.40;77.30;;;;;;5030460;28;20036;-72
2020/12/18 04:53:50;;;;;;;11.90;6.32;;;10.40;77.30;;;;;;5032356;28;20033;-72
2020/12/18 04:56:21;;;;;;;13.00;5.57;;;10.40;77.30;;;;;;5029925;28;20102;-72
2020/12/18 04:58:49;;;;;;;13.50;6.22;;;10.50;77.30;;;;;;5032499;28;20072;-73
2020/12/18 05:01:22;;;;;;;13.90;6.22;;;10.40;77.10;;;;;;5030673;28;20022;-72
2020/12/18 05:03:48;;;;;;;16.58;7.80;;;10.50;77.30;;;;;;5016534;28;20044;-72
2020/12/18 05:06:14;;;;;;;11.93;5.63;;;10.40;77.50;;;;;;5027567;28;20107;-72
2020/12/18 05:08:39;;;;;;;14.02;6.20;;;10.40;77.70;;;;;;5040863;28;20029;-72
2020/12/18 05:11:19;;;;;;;13.82;6.57;;;10.40;77.70;;;;;;5027988;28;20060;-72
2020/12/18 05:13:46;;;;;;;21.90;7.28;;;10.40;77.80;;;;;;5029803;28;20037;-72
2020/12/18 05:16:12;;;;;;;12.18;5.30;;;10.30;77.80;;;;;;5016578;28;20033;-72
2020/12/18 05:18:38;;;;;;;11.75;6.07;;;10.40;77.90;;;;;;5016514;28;20472;-72
2020/12/18 05:21:05;;;;;;;13.25;6.85;;;10.40;77.80;;;;;;5016900;28;20068;-72
2020/12/18 05:23:36;;;;;;;12.85;5.72;;;10.30;77.60;;;;;;5026572;28;20045;-72
2020/12/18 05:26:04;;;;;;;10.27;5.93;;;10.30;77.70;;;;;;5021286;28;20500;-73
2020/12/18 05:28:43;;;;;;;14.75;6.80;;;10.30;77.50;;;;;;5025548;28;20521;-72
2020/12/18 05:31:19;;;;;;;13.93;6.07;;;10.30;77.20;;;;;;5027737;28;20655;-72
2020/12/18 05:33:48;;;;;;;12.15;6.22;;;10.30;77.20;;;;;;5021900;28;20506;-72
2020/12/18 05:36:14;;;;;;;12.55;5.65;;;10.30;77.10;;;;;;5018878;28;20446;-72
2020/12/18 05:38:41;;;;;;;15.27;5.63;;;10.20;77.00;;;;;;5027384;28;20049;-72
2020/12/18 05:41:08;;;;;;;13.40;5.82;;;10.20;77.10;;;;;;5029606;28;20038;-72
2020/12/18 05:43:38;;;;;;;12.25;5.82;;;10.20;77.20;;;;;;5034896;28;20033;-71
2020/12/18 05:46:24;;;;;;;13.07;6.82;;;10.10;77.20;;;;;;5027197;28;20502;-70
2020/12/18 05:49:01;;;;;;;13.95;5.53;;;10.20;77.00;;;;;;5013054;28;20033;-71
2020/12/18 05:51:33;;;;;;;13.45;5.63;;;10.10;77.00;;;;;;5030936;28;20022;-71
2020/12/18 05:54:19;;;;;;;18.58;6.40;;;10.10;77.00;;;;;;5015471;28;20038;-72
2020/12/18 05:56:47;;;;;;;9.38;5.38;;;10.10;76.80;;;;;;5021447;28;20041;-72
2020/12/18 05:59:21;;;;;;;12.02;6.72;;;10.20;76.60;;;;;;5024830;28;20348;-72
2020/12/18 06:01:48;;;;;;;10.85;4.95;;;10.10;76.60;;;;;;5012764;28;20040;-71
2020/12/18 06:04:22;;;;;;;12.20;6.45;;;10.10;76.50;;;;;;5014100;28;20037;-71
2020/12/18 06:06:51;;;;;;;;;;;10.10;77.20;;;;;;5010412;28;20025;-71
2020/12/18 06:09:20;;;;;;;12.73;4.72;;;10.10;76.40;;;;;;5016670;28;19936;-71
2020/12/18 06:11:46;;;;;;;11.85;4.72;;;10.10;76.60;;;;;;5017505;28;20094;-71
2020/12/18 06:14:14;;;;;;;12.75;6.22;;;10.10;76.90;;;;;;5017432;28;20072;-72
2020/12/18 06:17:06;;;;;;;13.82;5.25;;;10.10;77.10;;;;;;5015359;28;20388;-70
2020/12/18 06:19:40;;;;;;;9.75;4.13;;;10.10;77.20;;;;;;5021701;28;20081;-71
2020/12/18 06:22:11;;;;;;;13.13;6.03;;;10.10;77.50;;;;;;5017095;28;20356;-71
2020/12/18 06:24:41;;;;;;;18.40;6.18;;;10.10;77.70;;;;;;5017200;28;20360;-71
2020/12/18 06:27:15;;;;;;;12.48;5.20;;;10.20;77.80;;;;;;5019384;28;20525;-71
2020/12/18 06:29:41;;;;;;;17.17;5.55;;;10.10;78.10;;;;;;5020008;28;20456;-71
2020/12/18 06:32:26;;;;;;;16.98;5.20;;;10.20;78.20;;;;;;5022229;28;20087;-71
2020/12/18 06:34:53;;;;;;;12.25;5.85;;;10.20;78.30;;;;;;5017425;28;20124;-71
2020/12/18 06:37:31;;;;;;;12.00;5.03;;;10.20;78.50;;;;;;5019382;28;20048;-71
2020/12/18 06:39:59;;;;;;;14.93;5.82;;;10.20;78.80;;;;;;5020895;28;20029;-70
2020/12/18 06:42:26;;;;;;;9.85;4.78;;;10.20;78.90;;;;;;5018249;28;20025;-72
2020/12/18 06:44:56;;;;;;;11.57;5.47;;;10.20;78.80;;;;;;5020335;28;20033;-71
2020/12/18 06:47:31;;;;;;;11.23;4.68;;;10.20;79.10;;;;;;5020616;28;20028;-72
2020/12/18 06:50:14;;;;;;;10.00;4.45;;;10.20;79.10;;;;;;5020016;28;20040;-71
2020/12/18 06:52:42;;;;;;;9.25;4.68;;;10.30;79.00;;;;;;5025982;28;20029;-71
2020/12/18 06:55:11;;;;;;;11.50;4.25;;;10.30;79.00;;;;;;5022445;28;20096;-71
2020/12/18 06:57:38;;;;;;;10.40;4.78;;;10.40;79.00;;;;;;5014232;28;20029;-71
2020/12/18 07:00:28;;;;;;;15.68;5.18;;;10.40;79.00;;;;;;5018623;28;20040;-71
2020/12/18 07:02:55;;;;;;;14.45;4.43;;;10.40;78.80;;;;;;5025049;28;20748;-71
2020/12/18 07:05:31;;;;;;;11.32;4.32;;;10.40;78.80;;;;;;5022723;28;20478;-71
2020/12/18 07:07:58;;;;;;;10.57;4.70;;;10.40;78.80;;;;;;5018619;28;20029;-71
2020/12/18 07:10:29;;;;;;;14.88;5.07;;;10.30;78.90;;;;;;5007269;28;20038;-71
2020/12/18 07:12:59;;;;;;;10.63;4.70;;;10.30;79.00;;;;;;5013762;28;20037;-71
2020/12/18 07:15:45;;;;;;;15.73;6.25;;;10.30;79.10;;;;;;5008895;28;20069;-71
2020/12/18 07:18:29;;;;;;;12.02;5.05;;;10.20;79.20;;;;;;5022957;28;20050;-71
2020/12/18 07:21:00;;;;;;;10.32;4.88;;;10.20;79.10;;;;;;5017727;28;20034;-71
2020/12/18 07:23:28;;;;;;;8.35;4.88;;;10.20;79.00;;;;;;5025809;28;20034;-71
2020/12/18 07:25:55;;;;;;;12.27;5.72;;;10.30;79.00;;;;;;5013814;28;20033;-71
2020/12/18 07:28:22;;;;;;;11.02;5.78;;;10.30;78.90;;;;;;5021290;28;20022;-71
2020/12/18 07:30:49;;;;;;;9.88;4.97;;;10.20;78.80;;;;;;5025342;28;20064;-71
2020/12/18 07:33:18;;;;;;;9.98;5.68;;;10.20;78.80;;;;;;5019258;28;20030;-71
2020/12/18 07:35:52;;;;;;;12.88;5.15;;;10.20;78.80;;;;;;5016698;28;20050;-71
2020/12/18 07:38:29;;;;;;;14.35;5.25;;;10.30;78.60;;;;;;5023420;28;20052;-71
2020/12/18 07:40:59;;;;;;;12.68;5.43;;;10.30;78.40;;;;;;5019896;28;20121;-71
2020/12/18 07:43:30;;;;;;;12.27;5.40;;;10.30;78.40;;;;;;5008519;28;20065;-71
2020/12/18 07:45:58;;;;;;;15.10;6.72;;;10.20;78.60;;;;;;5017152;28;20044;-70
2020/12/18 07:48:32;;;;;;;11.85;5.80;;;10.20;78.60;;;;;;5016560;28;20045;-71
2020/12/18 07:51:08;;;;;;;10.82;5.63;;;10.20;78.40;;;;;;5007466;28;20113;-71
2020/12/18 07:53:42;;;;;;;11.48;5.35;;;10.20;78.50;;;;;;5010298;28;20042;-71
2020/12/18 07:56:19;;;;;;;10.80;5.47;;;10.20;78.60;;;;;;5014574;28;20036;-71
2020/12/18 07:58:59;;;;;;;12.10;5.68;;;10.20;78.60;;;;;;5023468;28;20034;-71
2020/12/18 08:01:27;;;;;;;12.82;5.75;;;10.30;78.50;;;;;;5013704;28;20018;-71
2020/12/18 08:04:09;;;;;;;11.35;4.90;;;10.30;78.30;;;;;;5019143;28;20053;-70
2020/12/18 08:06:37;;;;;;;10.27;5.30;;;10.40;78.10;;;;;;5020915;28;20301;-71
2020/12/18 08:09:11;;;;;;;15.63;5.45;;;10.50;77.80;;;;;;5024493;28;20045;-70
2020/12/18 08:11:42;;;;;;;10.82;5.60;;;10.60;77.70;;;;;;5029550;28;20025;-69
2020/12/18 08:14:09;;;;;;;11.05;5.70;;;10.70;77.60;;;;;;5027824;28;20029;-70
2020/12/18 08:16:35;;;;;;;13.35;6.32;;;10.70;77.70;;;;;;5023542;28;20054;-70
2020/12/18 08:19:03;;;;;;;11.55;5.65;;;10.80;77.60;;;;;;5025366;28;20104;-69
2020/12/18 08:21:33;;;;;;;11.05;4.78;;;10.90;77.40;;;;;;5026078;28;20045;-71
2020/12/18 08:24:09;;;;;;;15.05;6.18;;;10.90;77.30;;;;;;5030184;28;20033;-70
2020/12/18 08:26:41;;;;;;;13.00;5.65;;;10.90;77.30;;;;;;5042887;28;20044;-71
2020/12/18 08:29:07;;;;;;;8.43;4.65;;;11.00;77.30;;;;;;5021897;28;20053;-71
2020/12/18 08:31:35;;;;;;;11.48;5.47;;;11.00;77.20;;;;;;5023828;28;20042;-71
2020/12/18 08:34:14;;;;;;;11.93;5.82;;;11.10;77.30;;;;;;5021250;28;20030;-71
2020/12/18 08:36:46;;;;;;;10.48;4.38;;;11.10;77.40;;;;;;5028083;28;20050;-70
2020/12/18 08:39:14;;;;;;;11.18;4.78;;;11.10;77.60;;;;;;5026039;28;20033;-70
2020/12/18 08:41:44;;;;;;;13.30;4.70;;;11.10;77.60;;;;;;5012093;28;20072;-69
2020/12/18 08:44:12;;;;;;;18.30;5.32;;;11.20;77.60;;;;;;5024293;28;20135;-70
2020/12/18 08:46:38;;;;;;;10.52;5.10;;;11.20;77.70;;;;;;5026593;28;20024;-70
2020/12/18 08:49:20;;;;;;;14.73;5.15;;;11.20;77.70;;;;;;5019711;28;20034;-70
2020/12/18 08:51:49;;;;;;;8.75;4.82;;;11.30;77.80;;;;;;5004163;28;20034;-70
2020/12/18 08:54:29;;;;;;;18.15;8.35;;;11.30;77.60;;;;;;5029410;28;20033;-70
2020/12/18 08:57:16;;;;;;;15.27;6.85;;;11.40;77.40;;;;;;5018325;28;20036;-71
2020/12/18 08:59:57;;;;;;;13.27;6.40;;;11.40;77.50;;;;;;5021631;28;20053;-71
2020/12/18 09:02:24;;;;;;;15.10;6.70;;;11.40;77.40;;;;;;5024564;28;20021;-71
2020/12/18 09:05:08;;;;;;;13.05;5.45;;;11.50;77.40;;;;;;5013288;28;20052;-71
2020/12/18 09:07:42;;;;;;;12.70;5.18;;;11.50;77.30;;;;;;5029694;28;20034;-71
2020/12/18 09:10:11;;;;;;;14.18;6.53;;;11.50;77.20;;;;;;5023402;28;20037;-71
2020/12/18 09:12:41;;;;;;;11.98;6.30;;;11.50;77.30;;;;;;5011639;28;20033;-71
2020/12/18 09:15:24;;;;;;;10.52;5.80;;;11.50;77.20;;;;;;5024367;28;20029;-71
2020/12/18 09:18:08;;;;;;;9.45;5.68;;;11.60;77.10;;;;;;5012105;28;20084;-71
2020/12/18 09:20:38;;;;;;;;;;;11.50;77.70;;;;;;5016164;28;20157;-71
2020/12/18 09:23:05;;;;;;;10.90;5.60;;;11.70;76.90;;;;;;5022170;28;19913;-71
2020/12/18 09:25:39;;;;;;;10.38;5.80;;;11.70;76.90;;;;;;5015185;28;20025;-71
2020/12/18 09:28:13;;;;;;;10.90;7.13;;;11.70;76.90;;;;;;5018325;28;20467;-71
2020/12/18 09:30:39;;;;;;;12.40;6.28;;;11.80;76.90;;;;;;5018992;28;20060;-71
2020/12/18 09:33:25;;;;;;;11.38;7.25;;;11.80;76.80;;;;;;5017374;28;20180;-71
2020/12/18 09:36:01;;;;;;;22.27;7.95;;;11.90;76.70;;;;;;5017045;28;20452;-71
2020/12/18 09:38:30;;;;;;;14.60;6.53;;;12.20;76.70;;;;;;5020457;28;20029;-70
2020/12/18 09:40:57;;;;;;;15.60;6.45;;;12.00;76.60;;;;;;5018991;28;20036;-71
2020/12/18 09:43:23;;;;;;;13.93;7.88;;;12.00;76.30;;;;;;5026296;28;20296;-70
2020/12/18 09:45:49;;;;;;;10.57;6.75;;;12.00;76.20;;;;;;5030484;28;20509;-70
2020/12/18 09:48:15;;;;;;;11.10;5.20;;;12.00;76.30;;;;;;5016770;28;20033;-70
2020/12/18 09:50:41;;;;;;;11.38;6.15;;;12.10;76.30;;;;;;5021073;28;20040;-70
2020/12/18 09:53:07;;;;;;;12.35;5.45;;;12.10;76.20;;;;;;5022692;28;20473;-71
2020/12/18 09:55:33;;;;;;;10.95;4.85;;;12.30;76.10;;;;;;5016303;28;20446;-70
2020/12/18 09:58:01;;;;;;;13.07;6.53;;;12.30;75.80;;;;;;5027681;28;20092;-71
2020/12/18 10:00:26;;;;;;;12.43;6.85;;;12.40;75.10;;;;;;5009819;28;20030;-70
2020/12/18 10:02:52;;;;;;;11.35;6.22;;;12.30;75.40;;;;;;5021187;28;20404;-71
2020/12/18 10:05:17;;;;;;;11.90;5.03;;;12.30;75.50;;;;;;5017455;28;20044;-70
2020/12/18 10:07:43;;;;;;;10.20;5.03;;;12.40;75.40;;;;;;5020747;28;20071;-72
2020/12/18 10:10:10;;;;;;;15.48;5.63;;;12.50;75.50;;;;;;5021768;28;20030;-71
2020/12/18 10:12:35;;;;;;;9.50;5.78;;;12.60;74.80;;;;;;5023311;28;20033;-71
2020/12/18 10:15:01;;;;;;;11.40;5.40;;;12.60;74.80;;;;;;5018555;28;20033;-70
2020/12/18 10:17:27;;;;;;;13.10;6.65;;;12.60;74.60;;;;;;5018457;28;20549;-70
2020/12/18 10:19:53;;;;;;;9.65;5.22;;;12.60;74.70;;;;;;5000082;28;20025;-71
2020/12/18 10:22:18;;;;;;;13.68;5.22;;;12.60;74.70;;;;;;5020229;28;20395;-70
2020/12/18 10:24:44;;;;;;;10.82;5.53;;;12.60;74.50;;;;;;5029731;28;20049;-70
2020/12/18 10:27:11;;;;;;;9.55;5.70;;;12.70;74.30;;;;;;5023190;28;20359;-70
2020/12/18 10:29:36;;;;;;;9.57;5.65;;;12.80;74.60;;;;;;5028611;28;20113;-71
2020/12/18 10:32:02;;;;;;;11.20;5.65;;;12.90;74.10;;;;;;4996220;28;20152;-71
2020/12/18 10:34:28;;;;;;;9.45;4.60;;;13.00;73.70;;;;;;5029168;28;20060;-71
2020/12/18 10:36:55;;;;;;;9.40;5.07;;;13.10;73.40;;;;;;5029011;28;20065;-71
2020/12/18 10:39:23;;;;;;;18.05;5.18;;;13.10;72.80;;;;;;5017723;28;20611;-71
2020/12/18 10:41:52;;;;;;;14.43;5.38;;;13.10;73.00;;;;;;5009309;28;20030;-71
2020/12/18 10:44:18;;;;;;;11.80;4.45;;;13.00;73.40;;;;;;5016311;28;20069;-70
2020/12/18 10:46:48;;;;;;;13.02;5.43;;;13.10;73.00;;;;;;5017516;28;20038;-71
2020/12/18 10:49:15;;;;;;;8.55;4.25;;;13.10;72.80;;;;;;5009451;28;20086;-71
2020/12/18 10:51:42;;;;;;;10.02;4.68;;;13.10;72.80;;;;;;5026963;28;20033;-70
2020/12/18 10:54:08;;;;;;;10.63;4.93;;;13.20;73.00;;;;;;5011474;28;20121;-71
2020/12/18 10:56:40;;;;;;;8.20;4.22;;;13.30;72.70;;;;;;5020540;28;20029;-71
2020/12/18 10:59:06;;;;;;;9.02;4.40;;;13.30;72.20;;;;;;5028421;28;20128;-70
2020/12/18 11:01:32;;;;;;;14.82;4.57;;;13.30;72.20;;;;;;5021596;28;20113;-70
2020/12/18 11:03:58;;;;;;;12.30;4.47;;;13.40;71.90;;;;;;5022347;28;20494;-71
2020/12/18 11:06:23;;;;;;;8.93;4.28;;;13.50;72.00;;;;;;5012771;28;20034;-71
2020/12/18 11:08:49;;;;;;;7.68;3.75;;;13.50;71.90;;;;;;5016693;28;20038;-70
2020/12/18 11:11:15;;;;;;;7.35;3.60;;;13.60;71.50;;;;;;5017279;28;20056;-71
2020/12/18 11:13:41;;;;;;;12.98;5.75;;;13.60;71.50;;;;;;5019978;28;20337;-70
2020/12/18 11:16:08;;;;;;;11.80;4.63;;;13.60;71.40;;;;;;5012053;28;20046;-72
2020/12/18 11:18:34;;;;;;;7.97;3.42;;;13.60;71.70;;;;;;5035727;28;20210;-71
2020/12/18 11:21:04;;;;;;;10.05;4.00;;;13.60;71.60;;;;;;5030030;28;20065;-71
2020/12/18 11:23:31;;;;;;;10.65;5.03;;;13.60;70.80;;;;;;5017810;28;20029;-70
2020/12/18 11:25:57;;;;;;;6.93;4.13;;;13.60;70.90;;;;;;5027944;28;20029;-71
2020/12/18 11:28:23;;;;;;;12.65;4.63;;;13.60;71.40;;;;;;5021283;28;20072;-71
2020/12/18 11:30:49;;;;;;;9.60;4.32;;;13.60;71.40;;;;;;5028679;28;20038;-71
2020/12/18 11:33:15;;;;;;;11.50;5.28;;;13.70;70.80;;;;;;5023162;28;20053;-70
2020/12/18 11:35:41;;;;;;;9.38;5.20;;;13.70;70.50;;;;;;5019475;28;20410;-71
2020/12/18 11:38:07;;;;;;;9.13;4.53;;;13.70;70.80;;;;;;5009029;28;20068;-71
2020/12/18 11:40:33;;;;;;;9.90;5.15;;;13.70;70.90;;;;;;5015324;28;20073;-71
2020/12/18 11:42:58;;;;;;;13.73;6.20;;;13.80;70.30;;;;;;5016119;28;20981;-70
2020/12/18 11:45:24;;;;;;;13.18;3.72;;;13.70;70.40;;;;;;5016651;28;20065;-71
2020/12/18 11:47:50;;;;;;;11.60;4.70;;;13.70;70.70;;;;;;5010255;28;20059;-71
2020/12/18 11:50:16;;;;;;;8.98;4.07;;;13.80;70.40;;;;;;5021319;28;20037;-72
2020/12/18 11:52:42;;;;;;;9.07;3.50;;;13.80;70.50;;;;;;5012832;28;20080;-72
2020/12/18 11:55:08;;;;;;;9.30;4.20;;;13.80;70.40;;;;;;5018085;28;20144;-71
2020/12/18 11:57:33;;;;;;;11.48;4.47;;;13.80;70.40;;;;;;5016358;28;20061;-72
2020/12/18 11:59:59;;;;;;;8.90;4.10;;;13.80;70.40;;;;;;5013167;28;20030;-71
2020/12/18 12:02:25;;;;;;;9.65;4.55;;;13.90;70.10;;;;;;5013614;28;20085;-71
2020/12/18 12:04:50;;;;;;;8.73;3.85;;;13.90;70.00;;;;;;5015690;28;20550;-71
2020/12/18 12:07:16;;;;;;;7.22;4.18;;;13.80;70.20;;;;;;5012636;28;20399;-71
2020/12/18 12:09:42;;;;;;;11.18;4.78;;;13.80;70.40;;;;;;5013519;28;20041;-72
2020/12/18 12:12:12;;;;;;;10.50;4.57;;;13.90;69.70;;;;;;5016523;28;20064;-72
2020/12/18 12:14:38;;;;;;;10.10;4.93;;;13.80;70.20;;;;;;5013925;28;20121;-70
2020/12/18 12:17:04;;;;;;;7.30;3.70;;;13.90;70.10;;;;;;5015667;28;20043;-71
2020/12/18 12:19:30;;;;;;;10.40;3.63;;;13.90;70.20;;;;;;5011125;28;20036;-72
2020/12/18 12:21:55;;;;;;;14.32;4.13;;;14.00;69.90;;;;;;5014788;28;20857;-76
2020/12/18 12:24:21;;;;;;;7.00;4.30;;;14.00;69.60;;;;;;5018023;28;20200;-72
2020/12/18 12:26:48;;;;;;;11.88;3.90;;;14.00;69.60;;;;;;5016731;28;20037;-71
2020/12/18 12:29:14;;;;;;;9.98;5.22;;;14.00;69.60;;;;;;5030897;28;20088;-73
2020/12/18 12:31:40;;;;;;;10.27;4.70;;;14.00;69.80;;;;;;5020719;28;20033;-72
2020/12/18 12:34:06;;;;;;;10.27;3.85;;;14.10;69.50;;;;;;5015419;28;20122;-72
2020/12/18 12:36:31;;;;;;;8.00;3.67;;;14.10;69.70;;;;;;5014090;28;20073;-71
2020/12/18 12:38:57;;;;;;;9.18;4.30;;;14.20;68.80;;;;;;5015094;28;20026;-72
2020/12/18 12:41:24;;;;;;;10.80;3.83;;;14.20;69.10;;;;;;5017723;28;20037;-72
2020/12/18 12:43:50;;;;;;;10.70;3.97;;;14.20;68.70;;;;;;5015697;28;20042;-72